sensor_id;sensor_type;location;lat;lon;timestamp;P1;durP1;ratioP1;P2;durP2;ratioP2
69172;SDS011;56280;49.662;8.408;2023-04-01T00:00:30;7.03;;;1.57;;
69172;SDS011;56280;49.662;8.408;2023-04-01T00:02:56;5.17;;;1.50;;
69172;SDS011;56280;49.662;8.408;2023-04-01T00:05:21;6.63;;;1.70;;
69172;SDS011;56280;49.662;8.408;2023-04-01T00:07:49;5.43;;;1.55;;
69172;SDS011;56280;49.662;8.408;2023-04-01T00:10:14;7.23;;;1.80;;
69172;SDS011;56280;49.662;8.408;2023-04-01T00:12:40;6.63;;;1.80;;
69172;SDS011;56280;49.662;8.408;2023-04-01T00:15:06;6.30;;;1.50;;
69172;SDS011;56280;49.662;8.408;2023-04-01T00:17:32;5.85;;;1.90;;
69172;SDS011;56280;49.662;8.408;2023-04-01T00:19:58;5.43;;;1.58;;
69172;SDS011;56280;49.662;8.408;2023-04-01T00:22:24;5.43;;;2.00;;
69172;SDS011;56280;49.662;8.408;2023-04-01T00:24:51;7.05;;;1.63;;
69172;SDS011;56280;49.662;8.408;2023-04-01T00:27:16;6.50;;;1.80;;
69172;SDS011;56280;49.662;8.408;2023-04-01T00:29:42;7.15;;;2.08;;
69172;SDS011;56280;49.662;8.408;2023-04-01T00:32:08;6.25;;;1.83;;
69172;SDS011;56280;49.662;8.408;2023-04-01T00:34:33;7.55;;;1.92;;
69172;SDS011;56280;49.662;8.408;2023-04-01T00:36:59;7.30;;;2.10;;
69172;SDS011;56280;49.662;8.408;2023-04-01T00:39:25;5.80;;;1.90;;
69172;SDS011;56280;49.662;8.408;2023-04-01T00:41:53;5.40;;;2.10;;
69172;SDS011;56280;49.662;8.408;2023-04-01T00:44:22;6.03;;;1.83;;
69172;SDS011;56280;49.662;8.408;2023-04-01T00:46:49;6.77;;;2.10;;
69172;SDS011;56280;49.662;8.408;2023-04-01T00:49:17;5.40;;;1.75;;
69172;SDS011;56280;49.662;8.408;2023-04-01T00:51:45;5.33;;;1.67;;
69172;SDS011;56280;49.662;8.408;2023-04-01T00:54:13;6.15;;;1.90;;
69172;SDS011;56280;49.662;8.408;2023-04-01T00:56:48;5.88;;;1.55;;
69172;SDS011;56280;49.662;8.408;2023-04-01T00:59:21;6.85;;;1.58;;
69172;SDS011;56280;49.662;8.408;2023-04-01T01:01:49;5.53;;;1.70;;
69172;SDS011;56280;49.662;8.408;2023-04-01T01:04:26;6.90;;;1.60;;
69172;SDS011;56280;49.662;8.408;2023-04-01T01:06:58;5.93;;;1.50;;
69172;SDS011;56280;49.662;8.408;2023-04-01T01:09:39;6.90;;;1.50;;
69172;SDS011;56280;49.662;8.408;2023-04-01T01:15:56;6.25;;;1.65;;
69172;SDS011;56280;49.662;8.408;2023-04-01T01:18:24;5.50;;;1.87;;
69172;SDS011;56280;49.662;8.408;2023-04-01T01:21:04;5.70;;;1.65;;
69172;SDS011;56280;49.662;8.408;2023-04-01T01:23:44;8.00;;;1.85;;
69172;SDS011;56280;49.662;8.408;2023-04-01T01:31:59;6.77;;;1.80;;
69172;SDS011;56280;49.662;8.408;2023-04-01T01:37:24;5.87;;;1.47;;
69172;SDS011;56280;49.662;8.408;2023-04-01T01:39:56;6.68;;;1.90;;
69172;SDS011;56280;49.662;8.408;2023-04-01T01:42:28;5.55;;;1.70;;
69172;SDS011;56280;49.662;8.408;2023-04-01T01:44:56;6.05;;;1.90;;
69172;SDS011;56280;49.662;8.408;2023-04-01T01:47:24;6.45;;;1.63;;
69172;SDS011;56280;49.662;8.408;2023-04-01T01:49:51;6.57;;;1.92;;
69172;SDS011;56280;49.662;8.408;2023-04-01T01:52:18;6.88;;;1.83;;
69172;SDS011;56280;49.662;8.408;2023-04-01T01:54:49;7.25;;;1.65;;
69172;SDS011;56280;49.662;8.408;2023-04-01T01:57:20;6.90;;;1.77;;
69172;SDS011;56280;49.662;8.408;2023-04-01T01:59:51;6.65;;;1.83;;
69172;SDS011;56280;49.662;8.408;2023-04-01T02:02:20;6.00;;;1.75;;
69172;SDS011;56280;49.662;8.408;2023-04-01T02:04:47;6.95;;;2.00;;
69172;SDS011;56280;49.662;8.408;2023-04-01T02:07:16;6.38;;;1.90;;
69172;SDS011;56280;49.662;8.408;2023-04-01T02:09:47;5.75;;;1.55;;
69172;SDS011;56280;49.662;8.408;2023-04-01T02:12:13;6.60;;;1.80;;
69172;SDS011;56280;49.662;8.408;2023-04-01T02:14:55;5.10;;;1.67;;
69172;SDS011;56280;49.662;8.408;2023-04-01T02:17:27;6.75;;;1.80;;
69172;SDS011;56280;49.662;8.408;2023-04-01T02:19:56;5.45;;;1.60;;
69172;SDS011;56280;49.662;8.408;2023-04-01T02:22:26;6.27;;;1.50;;
69172;SDS011;56280;49.662;8.408;2023-04-01T02:24:54;6.43;;;1.90;;
69172;SDS011;56280;49.662;8.408;2023-04-01T02:27:23;4.65;;;1.48;;
69172;SDS011;56280;49.662;8.408;2023-04-01T02:29:49;5.57;;;1.77;;
69172;SDS011;56280;49.662;8.408;2023-04-01T02:32:15;4.22;;;1.48;;
69172;SDS011;56280;49.662;8.408;2023-04-01T02:34:42;5.20;;;1.83;;
69172;SDS011;56280;49.662;8.408;2023-04-01T02:37:08;5.53;;;1.40;;
69172;SDS011;56280;49.662;8.408;2023-04-01T02:39:33;4.87;;;1.57;;
69172;SDS011;56280;49.662;8.408;2023-04-01T02:41:59;6.47;;;1.90;;
69172;SDS011;56280;49.662;8.408;2023-04-01T02:44:25;6.63;;;2.00;;
69172;SDS011;56280;49.662;8.408;2023-04-01T02:46:50;5.07;;;1.70;;
69172;SDS011;56280;49.662;8.408;2023-04-01T02:49:16;5.50;;;1.83;;
69172;SDS011;56280;49.662;8.408;2023-04-01T02:51:41;6.80;;;1.53;;
69172;SDS011;56280;49.662;8.408;2023-04-01T02:54:06;5.43;;;1.50;;
69172;SDS011;56280;49.662;8.408;2023-04-01T02:56:32;6.40;;;1.70;;
69172;SDS011;56280;49.662;8.408;2023-04-01T02:58:57;6.03;;;1.50;;
69172;SDS011;56280;49.662;8.408;2023-04-01T03:01:22;6.03;;;1.43;;
69172;SDS011;56280;49.662;8.408;2023-04-01T03:03:48;5.50;;;1.67;;
69172;SDS011;56280;49.662;8.408;2023-04-01T03:06:14;7.80;;;2.03;;
69172;SDS011;56280;49.662;8.408;2023-04-01T03:08:41;5.93;;;1.60;;
69172;SDS011;56280;49.662;8.408;2023-04-01T03:11:06;5.57;;;1.50;;
69172;SDS011;56280;49.662;8.408;2023-04-01T03:13:32;6.07;;;2.00;;
69172;SDS011;56280;49.662;8.408;2023-04-01T03:15:58;5.60;;;1.92;;
69172;SDS011;56280;49.662;8.408;2023-04-01T03:18:23;5.50;;;1.73;;
69172;SDS011;56280;49.662;8.408;2023-04-01T03:20:48;5.47;;;1.90;;
69172;SDS011;56280;49.662;8.408;2023-04-01T03:23:14;6.00;;;1.63;;
69172;SDS011;56280;49.662;8.408;2023-04-01T03:25:42;8.03;;;1.90;;
69172;SDS011;56280;49.662;8.408;2023-04-01T03:28:07;4.95;;;2.17;;
69172;SDS011;56280;49.662;8.408;2023-04-01T03:30:33;5.90;;;2.10;;
69172;SDS011;56280;49.662;8.408;2023-04-01T03:32:58;6.07;;;2.13;;
69172;SDS011;56280;49.662;8.408;2023-04-01T03:35:27;7.47;;;1.88;;
69172;SDS011;56280;49.662;8.408;2023-04-01T03:37:52;6.57;;;2.10;;
69172;SDS011;56280;49.662;8.408;2023-04-01T03:40:19;5.68;;;1.50;;
69172;SDS011;56280;49.662;8.408;2023-04-01T03:42:45;5.95;;;1.58;;
69172;SDS011;56280;49.662;8.408;2023-04-01T03:45:11;3.93;;;1.60;;
69172;SDS011;56280;49.662;8.408;2023-04-01T03:47:37;6.18;;;1.48;;
69172;SDS011;56280;49.662;8.408;2023-04-01T03:50:03;6.00;;;1.40;;
69172;SDS011;56280;49.662;8.408;2023-04-01T03:52:29;6.43;;;1.45;;
69172;SDS011;56280;49.662;8.408;2023-04-01T03:54:54;5.23;;;1.60;;
69172;SDS011;56280;49.662;8.408;2023-04-01T03:57:20;5.30;;;1.80;;
69172;SDS011;56280;49.662;8.408;2023-04-01T03:59:45;4.80;;;1.40;;
69172;SDS011;56280;49.662;8.408;2023-04-01T04:02:10;5.83;;;1.60;;
69172;SDS011;56280;49.662;8.408;2023-04-01T04:04:35;5.20;;;1.57;;
69172;SDS011;56280;49.662;8.408;2023-04-01T04:07:01;5.80;;;1.50;;
69172;SDS011;56280;49.662;8.408;2023-04-01T04:09:26;6.60;;;1.57;;
69172;SDS011;56280;49.662;8.408;2023-04-01T04:11:51;4.97;;;1.43;;
69172;SDS011;56280;49.662;8.408;2023-04-01T04:14:17;5.37;;;1.33;;
69172;SDS011;56280;49.662;8.408;2023-04-01T04:16:42;5.90;;;1.67;;
69172;SDS011;56280;49.662;8.408;2023-04-01T04:19:07;5.77;;;1.63;;
69172;SDS011;56280;49.662;8.408;2023-04-01T04:21:33;6.50;;;2.07;;
69172;SDS011;56280;49.662;8.408;2023-04-01T04:23:59;5.33;;;1.70;;
69172;SDS011;56280;49.662;8.408;2023-04-01T04:26:25;7.03;;;1.60;;
69172;SDS011;56280;49.662;8.408;2023-04-01T04:28:50;4.70;;;1.67;;
69172;SDS011;56280;49.662;8.408;2023-04-01T04:31:19;4.87;;;1.37;;
69172;SDS011;56280;49.662;8.408;2023-04-01T04:33:46;5.20;;;1.63;;
69172;SDS011;56280;49.662;8.408;2023-04-01T04:36:11;5.60;;;1.67;;
69172;SDS011;56280;49.662;8.408;2023-04-01T04:38:36;4.77;;;1.70;;
69172;SDS011;56280;49.662;8.408;2023-04-01T04:41:02;6.43;;;1.50;;
69172;SDS011;56280;49.662;8.408;2023-04-01T04:43:27;5.20;;;1.70;;
69172;SDS011;56280;49.662;8.408;2023-04-01T04:45:52;4.27;;;1.40;;
69172;SDS011;56280;49.662;8.408;2023-04-01T04:48:18;5.20;;;1.50;;
69172;SDS011;56280;49.662;8.408;2023-04-01T04:50:45;4.82;;;1.40;;
69172;SDS011;56280;49.662;8.408;2023-04-01T04:53:15;6.60;;;1.70;;
69172;SDS011;56280;49.662;8.408;2023-04-01T04:55:43;5.65;;;1.30;;
69172;SDS011;56280;49.662;8.408;2023-04-01T04:58:09;6.32;;;1.80;;
69172;SDS011;56280;49.662;8.408;2023-04-01T05:00:35;7.28;;;1.65;;
69172;SDS011;56280;49.662;8.408;2023-04-01T05:03:00;7.22;;;1.83;;
69172;SDS011;56280;49.662;8.408;2023-04-01T05:05:25;7.07;;;1.73;;
69172;SDS011;56280;49.662;8.408;2023-04-01T05:07:51;3.77;;;1.60;;
69172;SDS011;56280;49.662;8.408;2023-04-01T05:10:16;4.60;;;1.73;;
69172;SDS011;56280;49.662;8.408;2023-04-01T05:12:42;4.75;;;1.70;;
69172;SDS011;56280;49.662;8.408;2023-04-01T05:15:07;6.43;;;1.60;;
69172;SDS011;56280;49.662;8.408;2023-04-01T05:17:33;5.20;;;1.52;;
69172;SDS011;56280;49.662;8.408;2023-04-01T05:19:59;6.40;;;1.65;;
69172;SDS011;56280;49.662;8.408;2023-04-01T05:22:25;5.57;;;1.70;;
69172;SDS011;56280;49.662;8.408;2023-04-01T05:24:51;4.45;;;1.30;;
69172;SDS011;56280;49.662;8.408;2023-04-01T05:27:17;4.07;;;1.70;;
69172;SDS011;56280;49.662;8.408;2023-04-01T05:29:42;4.47;;;1.63;;
69172;SDS011;56280;49.662;8.408;2023-04-01T05:32:08;4.27;;;1.50;;
69172;SDS011;56280;49.662;8.408;2023-04-01T05:34:34;5.55;;;3.00;;
69172;SDS011;56280;49.662;8.408;2023-04-01T05:37:00;6.43;;;4.20;;
69172;SDS011;56280;49.662;8.408;2023-04-01T05:39:26;5.00;;;2.88;;
69172;SDS011;56280;49.662;8.408;2023-04-01T05:41:52;5.97;;;2.17;;
69172;SDS011;56280;49.662;8.408;2023-04-01T05:44:18;6.72;;;4.30;;
69172;SDS011;56280;49.662;8.408;2023-04-01T05:46:44;4.93;;;2.03;;
69172;SDS011;56280;49.662;8.408;2023-04-01T05:49:09;4.70;;;2.22;;
69172;SDS011;56280;49.662;8.408;2023-04-01T05:51:37;7.95;;;4.57;;
69172;SDS011;56280;49.662;8.408;2023-04-01T05:54:04;9.50;;;5.93;;
69172;SDS011;56280;49.662;8.408;2023-04-01T05:56:30;8.20;;;5.78;;
69172;SDS011;56280;49.662;8.408;2023-04-01T05:58:55;4.63;;;2.23;;
69172;SDS011;56280;49.662;8.408;2023-04-01T06:01:20;4.80;;;1.90;;
69172;SDS011;56280;49.662;8.408;2023-04-01T06:03:46;5.67;;;2.20;;
69172;SDS011;56280;49.662;8.408;2023-04-01T06:06:15;6.47;;;3.27;;
69172;SDS011;56280;49.662;8.408;2023-04-01T06:08:45;7.00;;;3.93;;
69172;SDS011;56280;49.662;8.408;2023-04-01T06:16:48;4.70;;;2.33;;
69172;SDS011;56280;49.662;8.408;2023-04-01T06:22:00;4.53;;;2.17;;
69172;SDS011;56280;49.662;8.408;2023-04-01T06:30:16;4.40;;;1.50;;
69172;SDS011;56280;49.662;8.408;2023-04-01T06:32:51;3.08;;;1.17;;
69172;SDS011;56280;49.662;8.408;2023-04-01T06:35:33;4.15;;;1.38;;
69172;SDS011;56280;49.662;8.408;2023-04-01T06:41:16;3.60;;;1.35;;
69172;SDS011;56280;49.662;8.408;2023-04-01T06:43:50;3.60;;;1.33;;
69172;SDS011;56280;49.662;8.408;2023-04-01T06:46:41;3.93;;;1.07;;
69172;SDS011;56280;49.662;8.408;2023-04-01T06:49:21;5.00;;;1.27;;
69172;SDS011;56280;49.662;8.408;2023-04-01T06:54:38;3.58;;;1.20;;
69172;SDS011;56280;49.662;8.408;2023-04-01T06:59:58;3.60;;;1.52;;
69172;SDS011;56280;49.662;8.408;2023-04-01T07:03:10;3.00;;;1.13;;
69172;SDS011;56280;49.662;8.408;2023-04-01T07:05:35;4.05;;;1.17;;
69172;SDS011;56280;49.662;8.408;2023-04-01T07:08:08;5.27;;;2.90;;
69172;SDS011;56280;49.662;8.408;2023-04-01T07:10:43;4.03;;;2.03;;
69172;SDS011;56280;49.662;8.408;2023-04-01T07:13:12;3.20;;;1.50;;
69172;SDS011;56280;49.662;8.408;2023-04-01T07:15:43;4.33;;;2.30;;
69172;SDS011;56280;49.662;8.408;2023-04-01T07:18:31;3.70;;;1.50;;
69172;SDS011;56280;49.662;8.408;2023-04-01T07:21:02;2.97;;;1.30;;
69172;SDS011;56280;49.662;8.408;2023-04-01T07:23:31;3.65;;;1.50;;
69172;SDS011;56280;49.662;8.408;2023-04-01T07:26:15;3.80;;;1.38;;
69172;SDS011;56280;49.662;8.408;2023-04-01T07:28:44;5.03;;;1.85;;
69172;SDS011;56280;49.662;8.408;2023-04-01T07:42:01;3.43;;;0.93;;
69172;SDS011;56280;49.662;8.408;2023-04-01T08:06:08;4.47;;;2.33;;
69172;SDS011;56280;49.662;8.408;2023-04-01T08:09:25;4.15;;;2.67;;
69172;SDS011;56280;49.662;8.408;2023-04-01T08:11:53;4.20;;;2.83;;
69172;SDS011;56280;49.662;8.408;2023-04-01T08:16:57;4.97;;;4.30;;
69172;SDS011;56280;49.662;8.408;2023-04-01T08:22:40;4.15;;;2.45;;
69172;SDS011;56280;49.662;8.408;2023-04-01T08:25:44;3.13;;;1.77;;
69172;SDS011;56280;49.662;8.408;2023-04-01T08:28:13;3.65;;;1.80;;
69172;SDS011;56280;49.662;8.408;2023-04-01T08:33:26;2.97;;;1.37;;
69172;SDS011;56280;49.662;8.408;2023-04-01T08:35:59;3.10;;;1.10;;
69172;SDS011;56280;49.662;8.408;2023-04-01T08:38:36;2.90;;;1.38;;
69172;SDS011;56280;49.662;8.408;2023-04-01T08:55:00;2.93;;;0.90;;
69172;SDS011;56280;49.662;8.408;2023-04-01T09:06:06;2.55;;;1.10;;
69172;SDS011;56280;49.662;8.408;2023-04-01T09:20:17;2.93;;;1.03;;
69172;SDS011;56280;49.662;8.408;2023-04-01T09:26:02;2.40;;;1.00;;
69172;SDS011;56280;49.662;8.408;2023-04-01T09:39:42;3.03;;;1.80;;
69172;SDS011;56280;49.662;8.408;2023-04-01T09:42:44;3.83;;;2.03;;
69172;SDS011;56280;49.662;8.408;2023-04-01T09:47:57;4.60;;;2.40;;
69172;SDS011;56280;49.662;8.408;2023-04-01T09:50:52;4.75;;;2.42;;
69172;SDS011;56280;49.662;8.408;2023-04-01T10:04:23;2.30;;;1.10;;
69172;SDS011;56280;49.662;8.408;2023-04-01T10:18:22;3.20;;;1.38;;
69172;SDS011;56280;49.662;8.408;2023-04-01T10:26:35;2.13;;;0.70;;
69172;SDS011;56280;49.662;8.408;2023-04-01T10:32:02;2.33;;;0.77;;
69172;SDS011;56280;49.662;8.408;2023-04-01T11:15:38;2.20;;;0.95;;
69172;SDS011;56280;49.662;8.408;2023-04-01T11:21:02;3.35;;;1.10;;
69172;SDS011;56280;49.662;8.408;2023-04-01T11:24:15;2.55;;;1.00;;
69172;SDS011;56280;49.662;8.408;2023-04-01T11:32:31;2.13;;;0.80;;
69172;SDS011;56280;49.662;8.408;2023-04-01T11:35:31;2.30;;;0.93;;
69172;SDS011;56280;49.662;8.408;2023-04-01T11:49:29;2.33;;;1.15;;
69172;SDS011;56280;49.662;8.408;2023-04-01T12:09:18;2.47;;;1.20;;
69172;SDS011;56280;49.662;8.408;2023-04-01T12:31:32;2.80;;;1.30;;
69172;SDS011;56280;49.662;8.408;2023-04-01T12:34:40;2.20;;;1.00;;
69172;SDS011;56280;49.662;8.408;2023-04-01T12:39:57;2.30;;;1.00;;
69172;SDS011;56280;49.662;8.408;2023-04-01T12:56:14;2.22;;;1.23;;
69172;SDS011;56280;49.662;8.408;2023-04-01T12:59:07;2.63;;;1.33;;
69172;SDS011;56280;49.662;8.408;2023-04-01T13:02:00;2.80;;;1.20;;
69172;SDS011;56280;49.662;8.408;2023-04-01T13:09:53;2.25;;;0.90;;
69172;SDS011;56280;49.662;8.408;2023-04-01T13:12:51;2.50;;;1.00;;
69172;SDS011;56280;49.662;8.408;2023-04-01T13:15:28;2.23;;;0.97;;
69172;SDS011;56280;49.662;8.408;2023-04-01T13:23:55;3.05;;;1.20;;
69172;SDS011;56280;49.662;8.408;2023-04-01T13:26:36;2.83;;;1.00;;
69172;SDS011;56280;49.662;8.408;2023-04-01T13:29:18;2.30;;;1.08;;
69172;SDS011;56280;49.662;8.408;2023-04-01T13:34:32;2.70;;;1.20;;
69172;SDS011;56280;49.662;8.408;2023-04-01T13:37:59;3.13;;;1.67;;
69172;SDS011;56280;49.662;8.408;2023-04-01T13:43:02;2.58;;;1.30;;
69172;SDS011;56280;49.662;8.408;2023-04-01T13:48:38;3.40;;;1.50;;
69172;SDS011;56280;49.662;8.408;2023-04-01T13:51:12;3.17;;;1.60;;
69172;SDS011;56280;49.662;8.408;2023-04-01T14:02:50;2.73;;;1.20;;
69172;SDS011;56280;49.662;8.408;2023-04-01T14:05:32;3.70;;;1.57;;
69172;SDS011;56280;49.662;8.408;2023-04-01T14:25:03;3.42;;;1.42;;
69172;SDS011;56280;49.662;8.408;2023-04-01T14:28:00;3.70;;;1.30;;
69172;SDS011;56280;49.662;8.408;2023-04-01T14:35:49;4.75;;;2.28;;
69172;SDS011;56280;49.662;8.408;2023-04-01T14:41:17;3.97;;;2.03;;
69172;SDS011;56280;49.662;8.408;2023-04-01T14:44:05;5.10;;;2.25;;
69172;SDS011;56280;49.662;8.408;2023-04-01T14:50:12;6.23;;;2.60;;
69172;SDS011;56280;49.662;8.408;2023-04-01T14:55:27;3.60;;;1.90;;
69172;SDS011;56280;49.662;8.408;2023-04-01T14:58:00;4.80;;;1.85;;
69172;SDS011;56280;49.662;8.408;2023-04-01T15:03:17;4.33;;;1.90;;
69172;SDS011;56280;49.662;8.408;2023-04-01T15:05:52;6.07;;;2.03;;
69172;SDS011;56280;49.662;8.408;2023-04-01T15:08:25;3.37;;;1.33;;
69172;SDS011;56280;49.662;8.408;2023-04-01T15:14:14;3.40;;;1.40;;
69172;SDS011;56280;49.662;8.408;2023-04-01T15:22:08;3.03;;;1.35;;
69172;SDS011;56280;49.662;8.408;2023-04-01T15:25:05;3.38;;;1.45;;
69172;SDS011;56280;49.662;8.408;2023-04-01T15:30:26;3.67;;;1.40;;
69172;SDS011;56280;49.662;8.408;2023-04-01T15:33:06;3.53;;;1.47;;
69172;SDS011;56280;49.662;8.408;2023-04-01T15:41:07;2.90;;;1.15;;
69172;SDS011;56280;49.662;8.408;2023-04-01T15:51:48;3.38;;;1.48;;
69172;SDS011;56280;49.662;8.408;2023-04-01T15:57:43;2.35;;;0.90;;
69172;SDS011;56280;49.662;8.408;2023-04-01T16:00:28;2.50;;;0.90;;
69172;SDS011;56280;49.662;8.408;2023-04-01T16:03:08;3.25;;;1.40;;
69172;SDS011;56280;49.662;8.408;2023-04-01T16:05:37;2.45;;;1.13;;
69172;SDS011;56280;49.662;8.408;2023-04-01T16:08:28;3.55;;;1.80;;
69172;SDS011;56280;49.662;8.408;2023-04-01T16:14:18;3.50;;;1.67;;
69172;SDS011;56280;49.662;8.408;2023-04-01T16:17:27;2.60;;;1.20;;
69172;SDS011;56280;49.662;8.408;2023-04-01T16:20:17;3.05;;;1.17;;
69172;SDS011;56280;49.662;8.408;2023-04-01T16:25:32;2.97;;;1.27;;
69172;SDS011;56280;49.662;8.408;2023-04-01T16:44:55;3.45;;;1.20;;
69172;SDS011;56280;49.662;8.408;2023-04-01T16:47:22;2.83;;;1.03;;
69172;SDS011;56280;49.662;8.408;2023-04-01T16:49:56;2.67;;;1.20;;
69172;SDS011;56280;49.662;8.408;2023-04-01T16:55:43;2.88;;;1.20;;
69172;SDS011;56280;49.662;8.408;2023-04-01T16:58:18;2.87;;;1.27;;
69172;SDS011;56280;49.662;8.408;2023-04-01T17:00:49;3.03;;;1.10;;
69172;SDS011;56280;49.662;8.408;2023-04-01T17:03:28;2.23;;;1.00;;
69172;SDS011;56280;49.662;8.408;2023-04-01T17:08:48;2.78;;;1.20;;
69172;SDS011;56280;49.662;8.408;2023-04-01T17:14:09;2.73;;;1.00;;
69172;SDS011;56280;49.662;8.408;2023-04-01T17:19:27;3.08;;;1.20;;
69172;SDS011;56280;49.662;8.408;2023-04-01T17:25:31;3.10;;;1.30;;
69172;SDS011;56280;49.662;8.408;2023-04-01T17:38:40;3.00;;;1.30;;
69172;SDS011;56280;49.662;8.408;2023-04-01T17:41:28;3.58;;;1.85;;
69172;SDS011;56280;49.662;8.408;2023-04-01T17:44:16;2.88;;;1.27;;
69172;SDS011;56280;49.662;8.408;2023-04-01T17:50:02;2.45;;;0.93;;
69172;SDS011;56280;49.662;8.408;2023-04-01T17:52:57;3.97;;;1.50;;
69172;SDS011;56280;49.662;8.408;2023-04-01T17:55:40;2.85;;;1.20;;
69172;SDS011;56280;49.662;8.408;2023-04-01T17:58:29;3.45;;;1.40;;
69172;SDS011;56280;49.662;8.408;2023-04-01T18:12:14;3.30;;;1.50;;
69172;SDS011;56280;49.662;8.408;2023-04-01T18:17:39;3.10;;;1.40;;
69172;SDS011;56280;49.662;8.408;2023-04-01T18:26:08;5.10;;;2.72;;
69172;SDS011;56280;49.662;8.408;2023-04-01T18:28:57;4.25;;;2.22;;
69172;SDS011;56280;49.662;8.408;2023-04-01T18:31:40;4.63;;;2.28;;
69172;SDS011;56280;49.662;8.408;2023-04-01T18:37:51;3.40;;;1.60;;
69172;SDS011;56280;49.662;8.408;2023-04-01T18:40:25;3.73;;;1.50;;
69172;SDS011;56280;49.662;8.408;2023-04-01T18:42:55;4.20;;;1.70;;
69172;SDS011;56280;49.662;8.408;2023-04-01T18:48:01;3.20;;;1.53;;
69172;SDS011;56280;49.662;8.408;2023-04-01T18:50:59;3.58;;;1.60;;
69172;SDS011;56280;49.662;8.408;2023-04-01T18:53:41;3.35;;;1.30;;
69172;SDS011;56280;49.662;8.408;2023-04-01T18:59:03;3.28;;;1.60;;
69172;SDS011;56280;49.662;8.408;2023-04-01T19:01:36;3.78;;;1.67;;
69172;SDS011;56280;49.662;8.408;2023-04-01T19:04:23;3.38;;;1.83;;
69172;SDS011;56280;49.662;8.408;2023-04-01T19:06:59;3.78;;;1.83;;
69172;SDS011;56280;49.662;8.408;2023-04-01T19:09:31;3.80;;;1.75;;
69172;SDS011;56280;49.662;8.408;2023-04-01T19:12:23;4.15;;;2.20;;
69172;SDS011;56280;49.662;8.408;2023-04-01T19:14:57;3.97;;;1.83;;
69172;SDS011;56280;49.662;8.408;2023-04-01T19:20:24;3.78;;;1.90;;
69172;SDS011;56280;49.662;8.408;2023-04-01T19:25:56;3.43;;;1.70;;
69172;SDS011;56280;49.662;8.408;2023-04-01T19:31:07;3.58;;;1.70;;
69172;SDS011;56280;49.662;8.408;2023-04-01T19:50:40;3.55;;;1.58;;
69172;SDS011;56280;49.662;8.408;2023-04-01T19:56:19;3.35;;;1.45;;
69172;SDS011;56280;49.662;8.408;2023-04-01T19:58:54;3.25;;;1.50;;
69172;SDS011;56280;49.662;8.408;2023-04-01T20:01:34;3.90;;;1.70;;
69172;SDS011;56280;49.662;8.408;2023-04-01T20:04:14;4.55;;;2.30;;
69172;SDS011;56280;49.662;8.408;2023-04-01T20:06:48;4.72;;;2.30;;
69172;SDS011;56280;49.662;8.408;2023-04-01T20:09:29;3.95;;;1.80;;
69172;SDS011;56280;49.662;8.408;2023-04-01T20:14:54;5.15;;;2.55;;
69172;SDS011;56280;49.662;8.408;2023-04-01T20:22:37;4.10;;;1.77;;
69172;SDS011;56280;49.662;8.408;2023-04-01T20:25:17;4.68;;;2.10;;
69172;SDS011;56280;49.662;8.408;2023-04-01T20:27:56;4.55;;;2.20;;
69172;SDS011;56280;49.662;8.408;2023-04-01T20:30:30;4.35;;;2.10;;
69172;SDS011;56280;49.662;8.408;2023-04-01T20:36:12;4.70;;;1.95;;
69172;SDS011;56280;49.662;8.408;2023-04-01T20:42:20;4.07;;;1.73;;
69172;SDS011;56280;49.662;8.408;2023-04-01T20:44:50;3.55;;;1.92;;
69172;SDS011;56280;49.662;8.408;2023-04-01T21:09:27;5.15;;;2.25;;
69172;SDS011;56280;49.662;8.408;2023-04-01T21:18:18;4.20;;;2.00;;
69172;SDS011;56280;49.662;8.408;2023-04-01T21:27:06;4.65;;;2.55;;
69172;SDS011;56280;49.662;8.408;2023-04-01T21:37:56;3.07;;;1.80;;
69172;SDS011;56280;49.662;8.408;2023-04-01T21:40:42;3.67;;;1.67;;
69172;SDS011;56280;49.662;8.408;2023-04-01T21:46:16;4.03;;;1.80;;
69172;SDS011;56280;49.662;8.408;2023-04-01T21:51:58;3.55;;;2.00;;
69172;SDS011;56280;49.662;8.408;2023-04-01T22:00:17;4.95;;;2.10;;
69172;SDS011;56280;49.662;8.408;2023-04-01T22:02:50;4.30;;;1.98;;
69172;SDS011;56280;49.662;8.408;2023-04-01T22:10:50;3.90;;;2.00;;
69172;SDS011;56280;49.662;8.408;2023-04-01T22:13:29;4.43;;;2.30;;
69172;SDS011;56280;49.662;8.408;2023-04-01T22:16:12;4.13;;;2.58;;
69172;SDS011;56280;49.662;8.408;2023-04-01T22:18:48;4.00;;;2.27;;
69172;SDS011;56280;49.662;8.408;2023-04-01T22:24:44;4.90;;;2.08;;
69172;SDS011;56280;49.662;8.408;2023-04-01T22:32:59;4.30;;;2.30;;
69172;SDS011;56280;49.662;8.408;2023-04-01T22:41:35;9.63;;;5.60;;
69172;SDS011;56280;49.662;8.408;2023-04-01T22:47:13;9.82;;;6.28;;
69172;SDS011;56280;49.662;8.408;2023-04-01T22:49:53;7.47;;;4.18;;
69172;SDS011;56280;49.662;8.408;2023-04-01T22:52:33;6.60;;;3.45;;
69172;SDS011;56280;49.662;8.408;2023-04-01T22:55:04;5.95;;;3.67;;
69172;SDS011;56280;49.662;8.408;2023-04-01T22:57:52;5.85;;;3.67;;
69172;SDS011;56280;49.662;8.408;2023-04-01T23:00:23;5.70;;;3.40;;
69172;SDS011;56280;49.662;8.408;2023-04-01T23:03:13;5.15;;;3.10;;
69172;SDS011;56280;49.662;8.408;2023-04-01T23:05:46;4.68;;;2.80;;
69172;SDS011;56280;49.662;8.408;2023-04-01T23:11:02;5.97;;;3.00;;
69172;SDS011;56280;49.662;8.408;2023-04-01T23:13:41;5.53;;;3.05;;
69172;SDS011;56280;49.662;8.408;2023-04-01T23:16:13;6.22;;;3.40;;
69172;SDS011;56280;49.662;8.408;2023-04-01T23:24:16;4.17;;;2.57;;
69172;SDS011;56280;49.662;8.408;2023-04-01T23:27:16;4.20;;;2.60;;
69172;SDS011;56280;49.662;8.408;2023-04-01T23:29:48;5.00;;;2.80;;
69172;SDS011;56280;49.662;8.408;2023-04-01T23:32:17;4.53;;;2.90;;
69172;SDS011;56280;49.662;8.408;2023-04-01T23:34:51;5.07;;;2.90;;
69172;SDS011;56280;49.662;8.408;2023-04-01T23:37:21;4.22;;;2.92;;
69172;SDS011;56280;49.662;8.408;2023-04-01T23:39:51;5.28;;;2.80;;
69172;SDS011;56280;49.662;8.408;2023-04-01T23:44:56;4.63;;;2.88;;
69172;SDS011;56280;49.662;8.408;2023-04-01T23:47:24;5.32;;;2.67;;
69172;SDS011;56280;49.662;8.408;2023-04-01T23:49:55;4.70;;;2.55;;
69172;SDS011;56280;49.662;8.408;2023-04-01T23:52:24;4.97;;;2.70;;
69172;SDS011;56280;49.662;8.408;2023-04-01T23:57:33;5.60;;;2.75;;
